Fort Walton Beach, Florida
Current Conditions -  °F | °C
As of 9:59 AM on Sunday 23 Nov 2014 (Local Time) from KQBL Reporting Station
Haze Haze  
Wind Chill: 72°   Ceiling: 2400
Heat Index: 72°   Visibility: 3mi
Dew Point: 70°   Wind: 5mph
Humidity: 94%   Direction: 140°SE
Pressure: 29.79"   Gusts: NA
Location:  30.4°N, 86.61°W
Report Text: KQBL 231559Z AUTO 14004KT 3SM BR FEW013 SCT019 BKN024 BKN039 22/21 A2979 RMK AO2 LTG DSNT NE AND SW-W SHRAE59
Loading
Personal Weather Stations






























Interactive Weather Map New forecast layout! Learn more

10-Day Weather Forecast

Advertisements
Track Severe Weather on mobile